Portada
METAR-TAF:

METAR-TAF

Aeroports :

Qurayyat, Aràbia Saudita

latitud: 31-24N, longitud: 037-16E, altitud: 509 m

Observació

L'informe es va fer fa 58 minuts, a les 04:00 UTC
Vent 4 kt del Nord-Oest
Temperatura 20°C
Humitat 49%
Pressió 1011 hPa
Visibilitat 10 km o més
sense núvols per sota de 1500 mi sense presència de cumulonimbus.

METAR: OEGT 220400Z 31004KT CAVOK 20/09 Q1011 NOSIG

Hora: 07:58 (04:58 UTC)

Pronòstic

L'informe es va fer fa 5 hores i 58 minuts, a les 23:00 UTC
Pronòstic vàlid del 22 a les 00 UTC al 23 a les 06 UTC
Vent 5 kt del Nord/Nord-Oest
Visibilitat 10 km o més
sense núvols per sota de 1500 mi sense presència de cumulonimbus.
Evolucionant progressivament
l' 22 a les 06 UTC al 22 a les 08 UTC
Vent 15 kt del Oest/Nord-Oest
Evolucionant progressivament
l' 22 a les 21 UTC al 22 a les 23 UTC
Vent 5 kt del Nord/Nord-Oest

TAF: OEGT 212300Z 2200/2306 33005KT CAVOK BECMG 2206/2208 30015KT BECMG 2221/2223 34005KT

Observacions i pronòstics meteorològics de més de 4000 aeroports (METAR i TAF).

Les estacions disponibles són els punts grocs i vermells al mapa.

Posi el ratolí al punt desitjat per veure el nom de l'estació.

Feu clic per veure les observacions i els pronòstics meteorològics.

Per canviar el mapa: feu clic els botons verds amb una creu de color negre per apropar; al botó verd amb un guió per allunyar la imatge; o en les fletxes verdes per a mapes adjacents.


METAR-TAF: